sensor_id;sensor_type;location;lat;lon;timestamp;P1;durP1;ratioP1;P2;durP2;ratioP2
49978;SDS011;35869;50.990;6.962;2023-09-18T00:00:17;6.00;;;5.43;;
49978;SDS011;35869;50.990;6.962;2023-09-18T00:05:18;7.83;;;6.07;;
49978;SDS011;35869;50.990;6.962;2023-09-18T00:10:18;7.38;;;6.28;;
49978;SDS011;35869;50.990;6.962;2023-09-18T00:15:18;6.78;;;5.05;;
49978;SDS011;35869;50.990;6.962;2023-09-18T00:20:18;8.85;;;5.45;;
49978;SDS011;35869;50.990;6.962;2023-09-18T00:25:18;6.10;;;5.18;;
49978;SDS011;35869;50.990;6.962;2023-09-18T00:30:19;9.88;;;5.45;;
49978;SDS011;35869;50.990;6.962;2023-09-18T00:35:19;7.57;;;5.22;;
49978;SDS011;35869;50.990;6.962;2023-09-18T00:40:19;6.47;;;5.15;;
49978;SDS011;35869;50.990;6.962;2023-09-18T00:45:19;5.85;;;4.72;;
49978;SDS011;35869;50.990;6.962;2023-09-18T00:50:20;9.90;;;5.55;;
49978;SDS011;35869;50.990;6.962;2023-09-18T00:55:21;7.72;;;5.38;;
49978;SDS011;35869;50.990;6.962;2023-09-18T01:00:21;9.20;;;5.32;;
49978;SDS011;35869;50.990;6.962;2023-09-18T01:05:22;7.00;;;5.05;;
49978;SDS011;35869;50.990;6.962;2023-09-18T01:10:22;8.98;;;5.57;;
49978;SDS011;35869;50.990;6.962;2023-09-18T01:15:33;6.50;;;4.85;;
49978;SDS011;35869;50.990;6.962;2023-09-18T01:20:36;9.40;;;4.85;;
49978;SDS011;35869;50.990;6.962;2023-09-18T01:25:37;7.03;;;5.07;;
49978;SDS011;35869;50.990;6.962;2023-09-18T01:30:37;8.32;;;5.38;;
49978;SDS011;35869;50.990;6.962;2023-09-18T01:35:37;6.82;;;4.55;;
49978;SDS011;35869;50.990;6.962;2023-09-18T01:40:39;7.78;;;4.68;;
49978;SDS011;35869;50.990;6.962;2023-09-18T01:45:41;6.30;;;4.45;;
49978;SDS011;35869;50.990;6.962;2023-09-18T01:50:42;7.90;;;4.35;;
49978;SDS011;35869;50.990;6.962;2023-09-18T01:55:42;5.97;;;4.30;;
49978;SDS011;35869;50.990;6.962;2023-09-18T02:00:43;6.95;;;4.25;;
49978;SDS011;35869;50.990;6.962;2023-09-18T02:05:43;9.07;;;4.53;;
49978;SDS011;35869;50.990;6.962;2023-09-18T02:10:43;8.48;;;5.30;;
49978;SDS011;35869;50.990;6.962;2023-09-18T02:15:43;10.65;;;4.63;;
49978;SDS011;35869;50.990;6.962;2023-09-18T02:20:45;7.93;;;5.05;;
49978;SDS011;35869;50.990;6.962;2023-09-18T02:25:45;9.13;;;4.63;;
49978;SDS011;35869;50.990;6.962;2023-09-18T02:30:45;6.50;;;4.20;;
49978;SDS011;35869;50.990;6.962;2023-09-18T02:35:46;6.35;;;4.53;;
49978;SDS011;35869;50.990;6.962;2023-09-18T02:40:46;5.75;;;4.60;;
49978;SDS011;35869;50.990;6.962;2023-09-18T02:45:46;7.10;;;5.07;;
49978;SDS011;35869;50.990;6.962;2023-09-18T02:50:46;9.98;;;4.90;;
49978;SDS011;35869;50.990;6.962;2023-09-18T02:55:47;8.63;;;5.15;;
49978;SDS011;35869;50.990;6.962;2023-09-18T03:00:49;9.40;;;5.65;;
49978;SDS011;35869;50.990;6.962;2023-09-18T03:05:50;8.57;;;4.90;;
49978;SDS011;35869;50.990;6.962;2023-09-18T03:10:50;7.90;;;5.30;;
49978;SDS011;35869;50.990;6.962;2023-09-18T03:15:50;8.20;;;5.88;;
49978;SDS011;35869;50.990;6.962;2023-09-18T03:20:51;8.75;;;5.38;;
49978;SDS011;35869;50.990;6.962;2023-09-18T03:25:51;10.45;;;5.97;;
49978;SDS011;35869;50.990;6.962;2023-09-18T03:30:51;8.65;;;5.75;;
49978;SDS011;35869;50.990;6.962;2023-09-18T03:35:52;8.50;;;5.40;;
49978;SDS011;35869;50.990;6.962;2023-09-18T03:40:52;8.70;;;5.72;;
49978;SDS011;35869;50.990;6.962;2023-09-18T03:45:52;8.43;;;5.43;;
49978;SDS011;35869;50.990;6.962;2023-09-18T03:50:52;8.25;;;5.18;;
49978;SDS011;35869;50.990;6.962;2023-09-18T03:55:53;7.80;;;5.05;;
49978;SDS011;35869;50.990;6.962;2023-09-18T04:00:53;12.80;;;4.95;;
49978;SDS011;35869;50.990;6.962;2023-09-18T04:05:53;8.85;;;4.45;;
49978;SDS011;35869;50.990;6.962;2023-09-18T04:10:54;9.88;;;4.53;;
49978;SDS011;35869;50.990;6.962;2023-09-18T04:15:55;10.07;;;4.75;;
49978;SDS011;35869;50.990;6.962;2023-09-18T04:20:55;8.63;;;4.43;;
49978;SDS011;35869;50.990;6.962;2023-09-18T04:25:55;6.65;;;4.72;;
49978;SDS011;35869;50.990;6.962;2023-09-18T04:30:55;9.48;;;5.10;;
49978;SDS011;35869;50.990;6.962;2023-09-18T04:35:56;12.30;;;4.63;;
49978;SDS011;35869;50.990;6.962;2023-09-18T04:40:59;10.95;;;4.85;;
49978;SDS011;35869;50.990;6.962;2023-09-18T04:46:00;5.28;;;4.13;;
49978;SDS011;35869;50.990;6.962;2023-09-18T04:51:01;8.88;;;5.25;;
49978;SDS011;35869;50.990;6.962;2023-09-18T04:56:02;10.18;;;5.07;;
49978;SDS011;35869;50.990;6.962;2023-09-18T05:01:03;9.03;;;4.73;;
49978;SDS011;35869;50.990;6.962;2023-09-18T05:06:03;8.80;;;4.77;;
49978;SDS011;35869;50.990;6.962;2023-09-18T05:11:03;10.20;;;5.53;;
49978;SDS011;35869;50.990;6.962;2023-09-18T05:16:04;8.57;;;4.82;;
49978;SDS011;35869;50.990;6.962;2023-09-18T05:21:04;8.02;;;4.35;;
49978;SDS011;35869;50.990;6.962;2023-09-18T05:26:04;8.80;;;4.70;;
49978;SDS011;35869;50.990;6.962;2023-09-18T05:31:04;9.07;;;4.95;;
49978;SDS011;35869;50.990;6.962;2023-09-18T05:36:05;11.60;;;5.47;;
49978;SDS011;35869;50.990;6.962;2023-09-18T05:41:05;9.25;;;4.72;;
49978;SDS011;35869;50.990;6.962;2023-09-18T05:46:05;9.18;;;5.20;;
49978;SDS011;35869;50.990;6.962;2023-09-18T05:51:05;8.95;;;5.05;;
49978;SDS011;35869;50.990;6.962;2023-09-18T05:56:06;7.38;;;4.28;;
49978;SDS011;35869;50.990;6.962;2023-09-18T06:01:06;6.95;;;4.50;;
49978;SDS011;35869;50.990;6.962;2023-09-18T06:06:06;10.10;;;3.90;;
49978;SDS011;35869;50.990;6.962;2023-09-18T06:11:07;6.23;;;3.77;;
49978;SDS011;35869;50.990;6.962;2023-09-18T06:16:07;7.45;;;4.05;;
49978;SDS011;35869;50.990;6.962;2023-09-18T06:21:07;4.90;;;3.57;;
49978;SDS011;35869;50.990;6.962;2023-09-18T06:26:07;8.50;;;3.10;;
49978;SDS011;35869;50.990;6.962;2023-09-18T06:31:08;7.82;;;3.45;;
49978;SDS011;35869;50.990;6.962;2023-09-18T06:36:08;3.47;;;2.88;;
49978;SDS011;35869;50.990;6.962;2023-09-18T06:41:08;6.37;;;3.20;;
49978;SDS011;35869;50.990;6.962;2023-09-18T06:46:09;6.78;;;2.90;;
49978;SDS011;35869;50.990;6.962;2023-09-18T06:51:09;8.13;;;3.45;;
49978;SDS011;35869;50.990;6.962;2023-09-18T06:56:09;6.30;;;2.75;;
49978;SDS011;35869;50.990;6.962;2023-09-18T07:01:09;7.90;;;3.00;;
49978;SDS011;35869;50.990;6.962;2023-09-18T07:06:10;4.97;;;2.78;;
49978;SDS011;35869;50.990;6.962;2023-09-18T07:11:10;7.10;;;3.08;;
49978;SDS011;35869;50.990;6.962;2023-09-18T07:16:10;7.75;;;3.83;;
49978;SDS011;35869;50.990;6.962;2023-09-18T07:21:11;6.00;;;2.50;;
49978;SDS011;35869;50.990;6.962;2023-09-18T07:26:11;3.78;;;2.33;;
49978;SDS011;35869;50.990;6.962;2023-09-18T07:31:11;5.32;;;2.55;;
49978;SDS011;35869;50.990;6.962;2023-09-18T07:36:12;6.40;;;1.73;;
49978;SDS011;35869;50.990;6.962;2023-09-18T07:41:12;9.23;;;2.20;;
49978;SDS011;35869;50.990;6.962;2023-09-18T07:46:12;4.72;;;2.00;;
49978;SDS011;35869;50.990;6.962;2023-09-18T07:51:12;5.97;;;1.88;;
49978;SDS011;35869;50.990;6.962;2023-09-18T07:56:13;3.03;;;1.70;;
49978;SDS011;35869;50.990;6.962;2023-09-18T08:01:13;4.95;;;1.58;;
49978;SDS011;35869;50.990;6.962;2023-09-18T08:06:13;4.15;;;1.50;;
49978;SDS011;35869;50.990;6.962;2023-09-18T08:11:13;1.67;;;1.38;;
49978;SDS011;35869;50.990;6.962;2023-09-18T08:16:14;5.70;;;1.67;;
49978;SDS011;35869;50.990;6.962;2023-09-18T08:21:14;2.08;;;1.20;;
49978;SDS011;35869;50.990;6.962;2023-09-18T08:26:14;2.45;;;1.38;;
49978;SDS011;35869;50.990;6.962;2023-09-18T08:31:14;1.98;;;1.10;;
49978;SDS011;35869;50.990;6.962;2023-09-18T08:36:15;2.65;;;1.40;;
49978;SDS011;35869;50.990;6.962;2023-09-18T08:41:16;3.67;;;1.30;;
49978;SDS011;35869;50.990;6.962;2023-09-18T08:46:18;2.80;;;1.10;;
49978;SDS011;35869;50.990;6.962;2023-09-18T08:51:18;2.77;;;1.40;;
49978;SDS011;35869;50.990;6.962;2023-09-18T08:56:19;3.72;;;1.67;;
49978;SDS011;35869;50.990;6.962;2023-09-18T09:01:21;1.85;;;1.20;;
49978;SDS011;35869;50.990;6.962;2023-09-18T09:06:21;3.95;;;1.27;;
49978;SDS011;35869;50.990;6.962;2023-09-18T09:11:22;3.47;;;1.30;;
49978;SDS011;35869;50.990;6.962;2023-09-18T09:16:22;2.13;;;1.10;;
49978;SDS011;35869;50.990;6.962;2023-09-18T09:21:22;3.00;;;1.20;;
49978;SDS011;35869;50.990;6.962;2023-09-18T09:26:22;2.53;;;1.30;;
49978;SDS011;35869;50.990;6.962;2023-09-18T09:31:26;2.97;;;1.30;;
49978;SDS011;35869;50.990;6.962;2023-09-18T09:36:27;2.75;;;1.42;;
49978;SDS011;35869;50.990;6.962;2023-09-18T09:41:28;3.95;;;1.85;;
49978;SDS011;35869;50.990;6.962;2023-09-18T09:46:28;2.85;;;1.02;;
49978;SDS011;35869;50.990;6.962;2023-09-18T09:51:29;3.63;;;1.13;;
49978;SDS011;35869;50.990;6.962;2023-09-18T09:56:50;2.40;;;1.00;;
49978;SDS011;35869;50.990;6.962;2023-09-18T10:01:50;1.53;;;0.90;;
49978;SDS011;35869;50.990;6.962;2023-09-18T10:06:51;3.50;;;1.40;;
49978;SDS011;35869;50.990;6.962;2023-09-18T10:11:56;3.70;;;1.52;;
49978;SDS011;35869;50.990;6.962;2023-09-18T10:16:57;2.17;;;1.23;;
49978;SDS011;35869;50.990;6.962;2023-09-18T10:27:16;1.75;;;1.20;;
49978;SDS011;35869;50.990;6.962;2023-09-18T10:32:18;2.50;;;1.08;;
49978;SDS011;35869;50.990;6.962;2023-09-18T10:37:18;2.67;;;1.00;;
49978;SDS011;35869;50.990;6.962;2023-09-18T10:42:20;3.85;;;1.20;;
49978;SDS011;35869;50.990;6.962;2023-09-18T10:47:21;2.60;;;1.25;;
49978;SDS011;35869;50.990;6.962;2023-09-18T10:52:23;1.58;;;1.00;;
49978;SDS011;35869;50.990;6.962;2023-09-18T10:57:24;2.40;;;0.63;;
49978;SDS011;35869;50.990;6.962;2023-09-18T11:02:24;2.15;;;1.10;;
49978;SDS011;35869;50.990;6.962;2023-09-18T11:07:24;2.80;;;0.90;;
49978;SDS011;35869;50.990;6.962;2023-09-18T11:18:05;5.43;;;1.25;;
49978;SDS011;35869;50.990;6.962;2023-09-18T11:28:15;2.15;;;1.20;;
49978;SDS011;35869;50.990;6.962;2023-09-18T11:38:30;3.92;;;1.33;;
49978;SDS011;35869;50.990;6.962;2023-09-18T11:43:31;3.40;;;0.80;;
49978;SDS011;35869;50.990;6.962;2023-09-18T11:48:31;5.55;;;1.17;;
49978;SDS011;35869;50.990;6.962;2023-09-18T11:53:34;6.28;;;0.93;;
49978;SDS011;35869;50.990;6.962;2023-09-18T11:58:49;2.78;;;1.15;;
49978;SDS011;35869;50.990;6.962;2023-09-18T12:03:54;6.07;;;1.25;;
49978;SDS011;35869;50.990;6.962;2023-09-18T12:08:59;2.03;;;0.95;;
49978;SDS011;35869;50.990;6.962;2023-09-18T12:14:21;7.97;;;1.40;;
49978;SDS011;35869;50.990;6.962;2023-09-18T12:19:59;2.47;;;0.95;;
49978;SDS011;35869;50.990;6.962;2023-09-18T12:25:11;2.38;;;0.98;;
49978;SDS011;35869;50.990;6.962;2023-09-18T12:30:13;3.33;;;1.20;;
49978;SDS011;35869;50.990;6.962;2023-09-18T12:35:13;2.75;;;1.20;;
49978;SDS011;35869;50.990;6.962;2023-09-18T12:40:21;1.85;;;1.02;;
49978;SDS011;35869;50.990;6.962;2023-09-18T12:45:25;4.90;;;1.35;;
49978;SDS011;35869;50.990;6.962;2023-09-18T12:50:27;5.63;;;1.40;;
49978;SDS011;35869;50.990;6.962;2023-09-18T12:55:27;3.70;;;0.90;;
49978;SDS011;35869;50.990;6.962;2023-09-18T13:00:27;1.35;;;0.88;;
49978;SDS011;35869;50.990;6.962;2023-09-18T13:05:28;2.33;;;1.00;;
49978;SDS011;35869;50.990;6.962;2023-09-18T13:10:28;1.42;;;1.27;;
49978;SDS011;35869;50.990;6.962;2023-09-18T13:15:29;1.45;;;0.77;;
49978;SDS011;35869;50.990;6.962;2023-09-18T13:20:31;3.25;;;1.25;;
49978;SDS011;35869;50.990;6.962;2023-09-18T13:25:32;1.17;;;0.98;;
49978;SDS011;35869;50.990;6.962;2023-09-18T13:30:35;2.03;;;0.98;;
49978;SDS011;35869;50.990;6.962;2023-09-18T13:35:37;1.83;;;1.00;;
49978;SDS011;35869;50.990;6.962;2023-09-18T13:40:43;2.63;;;1.05;;
49978;SDS011;35869;50.990;6.962;2023-09-18T13:45:45;9.55;;;1.52;;
49978;SDS011;35869;50.990;6.962;2023-09-18T13:50:46;4.60;;;1.33;;
49978;SDS011;35869;50.990;6.962;2023-09-18T13:55:46;1.38;;;1.10;;
49978;SDS011;35869;50.990;6.962;2023-09-18T14:00:47;1.55;;;1.05;;
49978;SDS011;35869;50.990;6.962;2023-09-18T14:05:47;1.48;;;1.20;;
49978;SDS011;35869;50.990;6.962;2023-09-18T14:10:47;2.58;;;0.90;;
49978;SDS011;35869;50.990;6.962;2023-09-18T14:15:47;4.30;;;1.23;;
49978;SDS011;35869;50.990;6.962;2023-09-18T14:20:47;1.45;;;1.10;;
49978;SDS011;35869;50.990;6.962;2023-09-18T14:25:48;12.55;;;1.33;;
49978;SDS011;35869;50.990;6.962;2023-09-18T14:30:48;1.52;;;1.10;;
49978;SDS011;35869;50.990;6.962;2023-09-18T14:40:48;4.82;;;1.23;;
49978;SDS011;35869;50.990;6.962;2023-09-18T14:45:48;1.65;;;1.30;;
49978;SDS011;35869;50.990;6.962;2023-09-18T14:55:55;4.90;;;0.80;;
49978;SDS011;35869;50.990;6.962;2023-09-18T15:05:56;3.88;;;1.30;;
49978;SDS011;35869;50.990;6.962;2023-09-18T15:15:56;1.67;;;0.90;;
49978;SDS011;35869;50.990;6.962;2023-09-18T15:20:57;2.20;;;0.90;;
49978;SDS011;35869;50.990;6.962;2023-09-18T15:35:57;1.75;;;1.10;;
49978;SDS011;35869;50.990;6.962;2023-09-18T15:45:58;6.32;;;3.97;;
49978;SDS011;35869;50.990;6.962;2023-09-18T15:50:58;3.08;;;1.30;;
49978;SDS011;35869;50.990;6.962;2023-09-18T15:55:58;1.50;;;1.07;;
49978;SDS011;35869;50.990;6.962;2023-09-18T16:00:58;2.20;;;0.93;;
49978;SDS011;35869;50.990;6.962;2023-09-18T16:06:17;5.80;;;1.80;;
49978;SDS011;35869;50.990;6.962;2023-09-18T16:11:17;1.45;;;1.00;;
49978;SDS011;35869;50.990;6.962;2023-09-18T16:16:18;4.25;;;1.73;;
49978;SDS011;35869;50.990;6.962;2023-09-18T16:21:19;5.63;;;1.20;;
49978;SDS011;35869;50.990;6.962;2023-09-18T16:26:22;3.22;;;0.93;;
49978;SDS011;35869;50.990;6.962;2023-09-18T16:31:22;1.05;;;0.85;;
49978;SDS011;35869;50.990;6.962;2023-09-18T16:36:23;3.47;;;1.30;;
49978;SDS011;35869;50.990;6.962;2023-09-18T16:41:23;2.10;;;1.05;;
49978;SDS011;35869;50.990;6.962;2023-09-18T16:46:23;3.92;;;0.98;;
49978;SDS011;35869;50.990;6.962;2023-09-18T16:51:23;1.60;;;1.00;;
49978;SDS011;35869;50.990;6.962;2023-09-18T16:56:24;5.50;;;1.50;;
49978;SDS011;35869;50.990;6.962;2023-09-18T17:01:24;3.40;;;1.17;;
49978;SDS011;35869;50.990;6.962;2023-09-18T17:06:24;8.82;;;1.30;;
49978;SDS011;35869;50.990;6.962;2023-09-18T17:11:25;6.50;;;1.48;;
49978;SDS011;35869;50.990;6.962;2023-09-18T17:16:25;1.73;;;0.93;;
49978;SDS011;35869;50.990;6.962;2023-09-18T17:21:25;2.33;;;1.13;;
49978;SDS011;35869;50.990;6.962;2023-09-18T17:26:25;1.35;;;1.20;;
49978;SDS011;35869;50.990;6.962;2023-09-18T17:31:26;1.98;;;1.50;;
49978;SDS011;35869;50.990;6.962;2023-09-18T17:36:26;2.10;;;1.13;;
49978;SDS011;35869;50.990;6.962;2023-09-18T17:41:26;1.92;;;1.58;;
49978;SDS011;35869;50.990;6.962;2023-09-18T17:46:26;2.88;;;1.63;;
49978;SDS011;35869;50.990;6.962;2023-09-18T17:51:26;3.65;;;1.30;;
49978;SDS011;35869;50.990;6.962;2023-09-18T17:56:27;3.20;;;1.25;;
49978;SDS011;35869;50.990;6.962;2023-09-18T18:01:27;4.40;;;1.73;;
49978;SDS011;35869;50.990;6.962;2023-09-18T18:06:27;2.40;;;1.50;;
49978;SDS011;35869;50.990;6.962;2023-09-18T18:11:27;7.47;;;1.10;;
49978;SDS011;35869;50.990;6.962;2023-09-18T18:16:31;8.30;;;1.95;;
49978;SDS011;35869;50.990;6.962;2023-09-18T18:21:34;8.48;;;2.10;;
49978;SDS011;35869;50.990;6.962;2023-09-18T18:26:34;6.95;;;1.75;;
49978;SDS011;35869;50.990;6.962;2023-09-18T18:31:34;4.35;;;1.25;;
49978;SDS011;35869;50.990;6.962;2023-09-18T18:36:35;5.45;;;1.58;;
49978;SDS011;35869;50.990;6.962;2023-09-18T18:41:35;4.72;;;1.30;;
49978;SDS011;35869;50.990;6.962;2023-09-18T18:46:35;4.82;;;1.45;;
49978;SDS011;35869;50.990;6.962;2023-09-18T18:51:35;5.00;;;1.60;;
49978;SDS011;35869;50.990;6.962;2023-09-18T18:56:36;4.32;;;1.70;;
49978;SDS011;35869;50.990;6.962;2023-09-18T19:01:37;3.80;;;2.00;;
49978;SDS011;35869;50.990;6.962;2023-09-18T19:06:37;1.42;;;1.13;;
49978;SDS011;35869;50.990;6.962;2023-09-18T19:11:38;3.72;;;1.58;;
49978;SDS011;35869;50.990;6.962;2023-09-18T19:16:38;4.03;;;1.90;;
49978;SDS011;35869;50.990;6.962;2023-09-18T19:21:38;2.13;;;1.45;;
49978;SDS011;35869;50.990;6.962;2023-09-18T19:26:39;2.72;;;1.70;;
49978;SDS011;35869;50.990;6.962;2023-09-18T19:31:39;3.33;;;1.90;;
49978;SDS011;35869;50.990;6.962;2023-09-18T19:36:39;7.20;;;1.63;;
49978;SDS011;35869;50.990;6.962;2023-09-18T19:41:39;2.30;;;1.90;;
49978;SDS011;35869;50.990;6.962;2023-09-18T19:46:40;3.60;;;1.80;;
49978;SDS011;35869;50.990;6.962;2023-09-18T19:51:40;2.03;;;1.65;;
49978;SDS011;35869;50.990;6.962;2023-09-18T19:56:41;3.15;;;1.88;;
49978;SDS011;35869;50.990;6.962;2023-09-18T20:01:41;2.42;;;2.13;;
49978;SDS011;35869;50.990;6.962;2023-09-18T20:06:41;5.13;;;1.85;;
49978;SDS011;35869;50.990;6.962;2023-09-18T20:11:41;7.05;;;2.30;;
49978;SDS011;35869;50.990;6.962;2023-09-18T20:16:42;3.53;;;1.77;;
49978;SDS011;35869;50.990;6.962;2023-09-18T20:21:42;4.53;;;1.75;;
49978;SDS011;35869;50.990;6.962;2023-09-18T20:26:43;4.68;;;1.95;;
49978;SDS011;35869;50.990;6.962;2023-09-18T20:31:43;2.40;;;1.67;;
49978;SDS011;35869;50.990;6.962;2023-09-18T20:36:43;3.80;;;1.85;;
49978;SDS011;35869;50.990;6.962;2023-09-18T20:41:43;3.30;;;1.50;;
49978;SDS011;35869;50.990;6.962;2023-09-18T20:46:44;2.10;;;1.70;;
49978;SDS011;35869;50.990;6.962;2023-09-18T20:51:44;3.30;;;1.60;;
49978;SDS011;35869;50.990;6.962;2023-09-18T20:56:44;3.17;;;1.83;;
49978;SDS011;35869;50.990;6.962;2023-09-18T21:01:44;3.88;;;1.83;;
49978;SDS011;35869;50.990;6.962;2023-09-18T21:06:45;4.32;;;2.00;;
49978;SDS011;35869;50.990;6.962;2023-09-18T21:11:45;2.70;;;1.73;;
49978;SDS011;35869;50.990;6.962;2023-09-18T21:16:45;2.28;;;1.65;;
49978;SDS011;35869;50.990;6.962;2023-09-18T21:21:45;2.20;;;1.85;;
49978;SDS011;35869;50.990;6.962;2023-09-18T21:26:45;2.78;;;1.70;;
49978;SDS011;35869;50.990;6.962;2023-09-18T21:31:46;3.20;;;1.50;;
49978;SDS011;35869;50.990;6.962;2023-09-18T21:36:46;3.75;;;2.08;;
49978;SDS011;35869;50.990;6.962;2023-09-18T21:41:46;2.33;;;1.85;;
49978;SDS011;35869;50.990;6.962;2023-09-18T21:46:47;4.70;;;1.98;;
49978;SDS011;35869;50.990;6.962;2023-09-18T21:51:47;2.60;;;1.48;;
49978;SDS011;35869;50.990;6.962;2023-09-18T21:56:47;5.10;;;2.00;;
49978;SDS011;35869;50.990;6.962;2023-09-18T22:01:47;7.13;;;2.22;;
49978;SDS011;35869;50.990;6.962;2023-09-18T22:06:51;4.03;;;1.63;;
49978;SDS011;35869;50.990;6.962;2023-09-18T22:11:51;4.22;;;1.98;;
49978;SDS011;35869;50.990;6.962;2023-09-18T22:16:51;2.33;;;1.80;;
49978;SDS011;35869;50.990;6.962;2023-09-18T22:21:51;2.58;;;1.67;;
49978;SDS011;35869;50.990;6.962;2023-09-18T22:26:52;6.53;;;1.90;;
49978;SDS011;35869;50.990;6.962;2023-09-18T22:31:52;3.60;;;1.27;;
49978;SDS011;35869;50.990;6.962;2023-09-18T22:36:52;2.78;;;1.85;;
49978;SDS011;35869;50.990;6.962;2023-09-18T22:57:44;3.67;;;1.85;;
49978;SDS011;35869;50.990;6.962;2023-09-18T23:02:46;2.88;;;1.80;;
49978;SDS011;35869;50.990;6.962;2023-09-18T23:07:51;3.58;;;1.38;;
49978;SDS011;35869;50.990;6.962;2023-09-18T23:13:11;2.95;;;1.33;;
49978;SDS011;35869;50.990;6.962;2023-09-18T23:18:14;3.27;;;1.73;;
49978;SDS011;35869;50.990;6.962;2023-09-18T23:23:30;3.60;;;2.17;;
49978;SDS011;35869;50.990;6.962;2023-09-18T23:28:30;4.28;;;1.73;;
49978;SDS011;35869;50.990;6.962;2023-09-18T23:33:30;3.47;;;1.65;;
49978;SDS011;35869;50.990;6.962;2023-09-18T23:38:31;4.40;;;2.00;;
49978;SDS011;35869;50.990;6.962;2023-09-18T23:43:31;5.63;;;1.85;;
49978;SDS011;35869;50.990;6.962;2023-09-18T23:48:31;3.83;;;1.90;;
49978;SDS011;35869;50.990;6.962;2023-09-18T23:53:31;4.03;;;1.73;;
49978;SDS011;35869;50.990;6.962;2023-09-18T23:58:32;5.40;;;1.83;;
